sensor_id;sensor_type;location;lat;lon;timestamp;P1;durP1;ratioP1;P2;durP2;ratioP2
47555;SDS011;33291;46.222;26.460;2023-07-02T00:02:15;4.50;;;3.60;;
47555;SDS011;33291;46.222;26.460;2023-07-02T00:04:41;4.72;;;4.10;;
47555;SDS011;33291;46.222;26.460;2023-07-02T00:07:08;9.95;;;4.25;;
47555;SDS011;33291;46.222;26.460;2023-07-02T00:09:33;6.05;;;3.95;;
47555;SDS011;33291;46.222;26.460;2023-07-02T00:11:59;6.95;;;4.15;;
47555;SDS011;33291;46.222;26.460;2023-07-02T00:14:24;5.00;;;4.40;;
47555;SDS011;33291;46.222;26.460;2023-07-02T00:16:50;6.93;;;4.30;;
47555;SDS011;33291;46.222;26.460;2023-07-02T00:19:15;11.30;;;5.13;;
47555;SDS011;33291;46.222;26.460;2023-07-02T00:21:41;5.35;;;4.05;;
47555;SDS011;33291;46.222;26.460;2023-07-02T00:24:08;8.13;;;4.05;;
47555;SDS011;33291;46.222;26.460;2023-07-02T00:26:37;7.10;;;3.88;;
47555;SDS011;33291;46.222;26.460;2023-07-02T00:29:03;10.05;;;4.30;;
47555;SDS011;33291;46.222;26.460;2023-07-02T00:31:30;5.45;;;4.05;;
47555;SDS011;33291;46.222;26.460;2023-07-02T00:33:57;4.32;;;3.67;;
47555;SDS011;33291;46.222;26.460;2023-07-02T00:36:22;6.95;;;4.00;;
47555;SDS011;33291;46.222;26.460;2023-07-02T00:38:48;4.18;;;3.53;;
47555;SDS011;33291;46.222;26.460;2023-07-02T00:41:14;6.55;;;4.13;;
47555;SDS011;33291;46.222;26.460;2023-07-02T00:43:40;5.85;;;3.95;;
47555;SDS011;33291;46.222;26.460;2023-07-02T00:46:18;4.55;;;3.65;;
47555;SDS011;33291;46.222;26.460;2023-07-02T00:48:48;7.32;;;4.40;;
47555;SDS011;33291;46.222;26.460;2023-07-02T00:51:16;7.18;;;4.32;;
47555;SDS011;33291;46.222;26.460;2023-07-02T00:53:47;7.55;;;3.80;;
47555;SDS011;33291;46.222;26.460;2023-07-02T00:56:14;5.05;;;4.00;;
47555;SDS011;33291;46.222;26.460;2023-07-02T00:58:43;4.93;;;3.58;;
47555;SDS011;33291;46.222;26.460;2023-07-02T01:01:16;8.40;;;4.63;;
47555;SDS011;33291;46.222;26.460;2023-07-02T01:03:53;6.88;;;4.47;;
47555;SDS011;33291;46.222;26.460;2023-07-02T01:06:39;4.82;;;4.07;;
47555;SDS011;33291;46.222;26.460;2023-07-02T01:09:06;8.00;;;4.10;;
47555;SDS011;33291;46.222;26.460;2023-07-02T01:11:43;6.20;;;4.07;;
47555;SDS011;33291;46.222;26.460;2023-07-02T01:16:46;7.70;;;4.65;;
47555;SDS011;33291;46.222;26.460;2023-07-02T01:19:14;7.20;;;4.15;;
47555;SDS011;33291;46.222;26.460;2023-07-02T01:21:46;5.60;;;3.90;;
47555;SDS011;33291;46.222;26.460;2023-07-02T01:24:14;5.78;;;3.90;;
47555;SDS011;33291;46.222;26.460;2023-07-02T01:26:41;5.60;;;4.50;;
47555;SDS011;33291;46.222;26.460;2023-07-02T01:29:17;6.32;;;4.15;;
47555;SDS011;33291;46.222;26.460;2023-07-02T01:31:44;6.82;;;4.50;;
47555;SDS011;33291;46.222;26.460;2023-07-02T01:34:10;5.80;;;4.43;;
47555;SDS011;33291;46.222;26.460;2023-07-02T01:36:37;7.45;;;4.25;;
47555;SDS011;33291;46.222;26.460;2023-07-02T01:39:03;13.57;;;4.20;;
47555;SDS011;33291;46.222;26.460;2023-07-02T01:41:29;7.28;;;4.85;;
47555;SDS011;33291;46.222;26.460;2023-07-02T01:43:55;10.27;;;4.63;;
47555;SDS011;33291;46.222;26.460;2023-07-02T01:46:21;4.93;;;3.85;;
47555;SDS011;33291;46.222;26.460;2023-07-02T01:48:46;7.35;;;4.75;;
47555;SDS011;33291;46.222;26.460;2023-07-02T01:51:12;10.10;;;4.72;;
47555;SDS011;33291;46.222;26.460;2023-07-02T01:53:38;5.65;;;4.57;;
47555;SDS011;33291;46.222;26.460;2023-07-02T01:56:04;9.02;;;4.38;;
47555;SDS011;33291;46.222;26.460;2023-07-02T01:58:29;5.32;;;4.50;;
47555;SDS011;33291;46.222;26.460;2023-07-02T02:00:55;9.13;;;4.90;;
47555;SDS011;33291;46.222;26.460;2023-07-02T02:03:21;6.13;;;4.32;;
47555;SDS011;33291;46.222;26.460;2023-07-02T02:05:47;8.95;;;4.30;;
47555;SDS011;33291;46.222;26.460;2023-07-02T02:08:12;6.22;;;4.32;;
47555;SDS011;33291;46.222;26.460;2023-07-02T02:10:38;6.93;;;4.03;;
47555;SDS011;33291;46.222;26.460;2023-07-02T02:13:04;6.55;;;4.78;;
47555;SDS011;33291;46.222;26.460;2023-07-02T02:15:30;7.25;;;4.90;;
47555;SDS011;33291;46.222;26.460;2023-07-02T02:17:55;12.57;;;5.03;;
47555;SDS011;33291;46.222;26.460;2023-07-02T02:20:21;5.78;;;4.20;;
47555;SDS011;33291;46.222;26.460;2023-07-02T02:22:46;9.45;;;4.78;;
47555;SDS011;33291;46.222;26.460;2023-07-02T02:25:12;6.40;;;4.03;;
47555;SDS011;33291;46.222;26.460;2023-07-02T02:27:37;8.30;;;4.57;;
47555;SDS011;33291;46.222;26.460;2023-07-02T02:30:03;5.38;;;4.22;;
47555;SDS011;33291;46.222;26.460;2023-07-02T02:32:29;10.52;;;5.10;;
47555;SDS011;33291;46.222;26.460;2023-07-02T02:34:55;5.88;;;4.65;;
47555;SDS011;33291;46.222;26.460;2023-07-02T02:37:20;7.90;;;5.00;;
47555;SDS011;33291;46.222;26.460;2023-07-02T02:39:47;5.88;;;4.85;;
47555;SDS011;33291;46.222;26.460;2023-07-02T02:42:13;6.90;;;4.70;;
47555;SDS011;33291;46.222;26.460;2023-07-02T02:44:38;5.85;;;4.70;;
47555;SDS011;33291;46.222;26.460;2023-07-02T02:47:04;8.30;;;4.28;;
47555;SDS011;33291;46.222;26.460;2023-07-02T02:49:30;11.93;;;4.78;;
47555;SDS011;33291;46.222;26.460;2023-07-02T02:51:56;5.88;;;4.80;;
47555;SDS011;33291;46.222;26.460;2023-07-02T02:54:21;6.85;;;4.65;;
47555;SDS011;33291;46.222;26.460;2023-07-02T02:56:47;6.38;;;4.40;;
47555;SDS011;33291;46.222;26.460;2023-07-02T02:59:13;8.07;;;4.70;;
47555;SDS011;33291;46.222;26.460;2023-07-02T03:01:38;7.13;;;4.75;;
47555;SDS011;33291;46.222;26.460;2023-07-02T03:04:04;4.85;;;4.20;;
47555;SDS011;33291;46.222;26.460;2023-07-02T03:06:33;5.30;;;4.38;;
47555;SDS011;33291;46.222;26.460;2023-07-02T03:08:59;6.82;;;4.22;;
47555;SDS011;33291;46.222;26.460;2023-07-02T03:11:24;8.32;;;5.47;;
47555;SDS011;33291;46.222;26.460;2023-07-02T03:13:50;8.77;;;4.47;;
47555;SDS011;33291;46.222;26.460;2023-07-02T03:16:16;7.60;;;4.70;;
47555;SDS011;33291;46.222;26.460;2023-07-02T03:18:41;9.00;;;4.55;;
47555;SDS011;33291;46.222;26.460;2023-07-02T03:21:07;5.38;;;4.43;;
47555;SDS011;33291;46.222;26.460;2023-07-02T03:23:32;6.80;;;4.32;;
47555;SDS011;33291;46.222;26.460;2023-07-02T03:25:58;8.68;;;4.70;;
47555;SDS011;33291;46.222;26.460;2023-07-02T03:28:23;5.75;;;4.57;;
47555;SDS011;33291;46.222;26.460;2023-07-02T03:30:49;4.93;;;4.43;;
47555;SDS011;33291;46.222;26.460;2023-07-02T03:33:14;8.10;;;4.45;;
47555;SDS011;33291;46.222;26.460;2023-07-02T03:35:40;6.40;;;4.65;;
47555;SDS011;33291;46.222;26.460;2023-07-02T03:38:05;5.63;;;4.28;;
47555;SDS011;33291;46.222;26.460;2023-07-02T03:40:31;5.30;;;4.80;;
47555;SDS011;33291;46.222;26.460;2023-07-02T03:42:57;4.38;;;3.80;;
47555;SDS011;33291;46.222;26.460;2023-07-02T03:45:22;7.32;;;5.18;;
47555;SDS011;33291;46.222;26.460;2023-07-02T03:47:48;6.32;;;4.18;;
47555;SDS011;33291;46.222;26.460;2023-07-02T03:50:13;6.00;;;4.10;;
47555;SDS011;33291;46.222;26.460;2023-07-02T03:52:39;4.13;;;3.65;;
47555;SDS011;33291;46.222;26.460;2023-07-02T03:55:04;7.47;;;4.53;;
47555;SDS011;33291;46.222;26.460;2023-07-02T03:57:30;10.27;;;4.78;;
47555;SDS011;33291;46.222;26.460;2023-07-02T03:59:56;6.88;;;4.28;;
47555;SDS011;33291;46.222;26.460;2023-07-02T04:02:22;8.82;;;4.40;;
47555;SDS011;33291;46.222;26.460;2023-07-02T04:04:47;8.23;;;4.38;;
47555;SDS011;33291;46.222;26.460;2023-07-02T04:07:13;5.57;;;4.53;;
47555;SDS011;33291;46.222;26.460;2023-07-02T04:09:38;6.93;;;4.15;;
47555;SDS011;33291;46.222;26.460;2023-07-02T04:12:04;5.55;;;4.38;;
47555;SDS011;33291;46.222;26.460;2023-07-02T04:14:30;3.80;;;3.50;;
47555;SDS011;33291;46.222;26.460;2023-07-02T04:16:55;4.85;;;4.05;;
47555;SDS011;33291;46.222;26.460;2023-07-02T04:19:21;5.40;;;4.28;;
47555;SDS011;33291;46.222;26.460;2023-07-02T04:21:46;6.20;;;4.38;;
47555;SDS011;33291;46.222;26.460;2023-07-02T04:24:12;4.38;;;3.90;;
47555;SDS011;33291;46.222;26.460;2023-07-02T04:26:38;5.00;;;4.03;;
47555;SDS011;33291;46.222;26.460;2023-07-02T04:29:06;5.45;;;4.53;;
47555;SDS011;33291;46.222;26.460;2023-07-02T04:31:32;6.00;;;3.97;;
47555;SDS011;33291;46.222;26.460;2023-07-02T04:33:57;7.45;;;4.30;;
47555;SDS011;33291;46.222;26.460;2023-07-02T04:36:23;6.45;;;4.45;;
47555;SDS011;33291;46.222;26.460;2023-07-02T04:38:48;6.20;;;4.05;;
47555;SDS011;33291;46.222;26.460;2023-07-02T04:41:14;5.00;;;4.30;;
47555;SDS011;33291;46.222;26.460;2023-07-02T04:43:39;5.05;;;4.00;;
47555;SDS011;33291;46.222;26.460;2023-07-02T04:46:05;6.50;;;3.92;;
47555;SDS011;33291;46.222;26.460;2023-07-02T04:48:32;5.80;;;4.35;;
47555;SDS011;33291;46.222;26.460;2023-07-02T04:50:57;5.30;;;4.00;;
47555;SDS011;33291;46.222;26.460;2023-07-02T04:53:22;5.13;;;3.97;;
47555;SDS011;33291;46.222;26.460;2023-07-02T04:55:48;5.10;;;4.22;;
47555;SDS011;33291;46.222;26.460;2023-07-02T04:58:13;6.22;;;4.90;;
47555;SDS011;33291;46.222;26.460;2023-07-02T05:00:39;9.98;;;5.20;;
47555;SDS011;33291;46.222;26.460;2023-07-02T05:03:04;8.40;;;4.32;;
47555;SDS011;33291;46.222;26.460;2023-07-02T05:05:30;5.13;;;3.95;;
47555;SDS011;33291;46.222;26.460;2023-07-02T05:07:55;10.60;;;4.35;;
47555;SDS011;33291;46.222;26.460;2023-07-02T05:10:21;5.40;;;4.53;;
47555;SDS011;33291;46.222;26.460;2023-07-02T05:12:46;4.05;;;3.50;;
47555;SDS011;33291;46.222;26.460;2023-07-02T05:15:12;6.22;;;4.10;;
47555;SDS011;33291;46.222;26.460;2023-07-02T05:17:37;7.65;;;4.18;;
47555;SDS011;33291;46.222;26.460;2023-07-02T05:20:03;6.97;;;4.18;;
47555;SDS011;33291;46.222;26.460;2023-07-02T05:22:29;6.68;;;4.50;;
47555;SDS011;33291;46.222;26.460;2023-07-02T05:24:55;5.15;;;4.15;;
47555;SDS011;33291;46.222;26.460;2023-07-02T05:27:20;6.38;;;3.70;;
47555;SDS011;33291;46.222;26.460;2023-07-02T05:29:46;8.52;;;4.43;;
47555;SDS011;33291;46.222;26.460;2023-07-02T05:32:11;4.47;;;4.05;;
47555;SDS011;33291;46.222;26.460;2023-07-02T05:34:37;6.45;;;4.50;;
47555;SDS011;33291;46.222;26.460;2023-07-02T05:37:02;5.57;;;4.30;;
47555;SDS011;33291;46.222;26.460;2023-07-02T05:39:28;8.77;;;3.90;;
47555;SDS011;33291;46.222;26.460;2023-07-02T05:41:54;6.60;;;4.72;;
47555;SDS011;33291;46.222;26.460;2023-07-02T05:44:20;5.90;;;4.30;;
47555;SDS011;33291;46.222;26.460;2023-07-02T05:46:45;7.65;;;3.97;;
47555;SDS011;33291;46.222;26.460;2023-07-02T05:49:11;5.55;;;4.05;;
47555;SDS011;33291;46.222;26.460;2023-07-02T05:51:36;5.15;;;4.47;;
47555;SDS011;33291;46.222;26.460;2023-07-02T05:54:02;6.50;;;4.88;;
47555;SDS011;33291;46.222;26.460;2023-07-02T05:56:27;7.30;;;4.85;;
47555;SDS011;33291;46.222;26.460;2023-07-02T05:58:53;10.27;;;4.57;;
47555;SDS011;33291;46.222;26.460;2023-07-02T06:01:18;7.72;;;5.55;;
47555;SDS011;33291;46.222;26.460;2023-07-02T06:03:44;6.88;;;4.75;;
47555;SDS011;33291;46.222;26.460;2023-07-02T06:06:10;6.55;;;4.82;;
47555;SDS011;33291;46.222;26.460;2023-07-02T06:08:36;12.15;;;5.35;;
47555;SDS011;33291;46.222;26.460;2023-07-02T06:11:02;7.72;;;4.05;;
47555;SDS011;33291;46.222;26.460;2023-07-02T06:13:27;6.97;;;3.92;;
47555;SDS011;33291;46.222;26.460;2023-07-02T06:15:53;9.10;;;5.28;;
47555;SDS011;33291;46.222;26.460;2023-07-02T06:18:18;9.23;;;5.10;;
47555;SDS011;33291;46.222;26.460;2023-07-02T06:20:45;7.50;;;4.72;;
47555;SDS011;33291;46.222;26.460;2023-07-02T06:23:11;9.98;;;4.80;;
47555;SDS011;33291;46.222;26.460;2023-07-02T06:25:36;5.28;;;4.35;;
47555;SDS011;33291;46.222;26.460;2023-07-02T06:28:02;8.75;;;4.95;;
47555;SDS011;33291;46.222;26.460;2023-07-02T06:30:27;7.20;;;4.50;;
47555;SDS011;33291;46.222;26.460;2023-07-02T06:32:53;6.80;;;5.03;;
47555;SDS011;33291;46.222;26.460;2023-07-02T06:35:19;10.55;;;5.22;;
47555;SDS011;33291;46.222;26.460;2023-07-02T06:37:45;8.30;;;5.55;;
47555;SDS011;33291;46.222;26.460;2023-07-02T06:40:11;7.47;;;4.93;;
47555;SDS011;33291;46.222;26.460;2023-07-02T06:42:37;8.48;;;4.85;;
47555;SDS011;33291;46.222;26.460;2023-07-02T06:45:03;14.60;;;4.93;;
47555;SDS011;33291;46.222;26.460;2023-07-02T06:47:29;11.30;;;5.38;;
47555;SDS011;33291;46.222;26.460;2023-07-02T06:49:54;6.35;;;4.40;;
47555;SDS011;33291;46.222;26.460;2023-07-02T06:52:20;10.77;;;5.07;;
47555;SDS011;33291;46.222;26.460;2023-07-02T06:54:45;7.13;;;4.72;;
47555;SDS011;33291;46.222;26.460;2023-07-02T06:57:12;7.88;;;4.80;;
47555;SDS011;33291;46.222;26.460;2023-07-02T06:59:38;11.75;;;5.13;;
47555;SDS011;33291;46.222;26.460;2023-07-02T07:02:03;7.22;;;4.70;;
47555;SDS011;33291;46.222;26.460;2023-07-02T07:04:29;11.93;;;5.35;;
47555;SDS011;33291;46.222;26.460;2023-07-02T07:06:54;7.97;;;5.15;;
47555;SDS011;33291;46.222;26.460;2023-07-02T07:09:20;9.77;;;3.92;;
47555;SDS011;33291;46.222;26.460;2023-07-02T07:11:47;7.25;;;3.80;;
47555;SDS011;33291;46.222;26.460;2023-07-02T07:14:12;6.22;;;3.28;;
47555;SDS011;33291;46.222;26.460;2023-07-02T07:16:38;6.72;;;3.35;;
47555;SDS011;33291;46.222;26.460;2023-07-02T07:19:04;4.85;;;3.25;;
47555;SDS011;33291;46.222;26.460;2023-07-02T07:21:29;5.97;;;2.42;;
47555;SDS011;33291;46.222;26.460;2023-07-02T07:23:55;3.88;;;3.30;;
47555;SDS011;33291;46.222;26.460;2023-07-02T07:26:20;4.28;;;3.15;;
47555;SDS011;33291;46.222;26.460;2023-07-02T07:28:46;8.52;;;3.47;;
47555;SDS011;33291;46.222;26.460;2023-07-02T07:31:11;3.38;;;2.47;;
47555;SDS011;33291;46.222;26.460;2023-07-02T07:33:37;4.38;;;3.28;;
47555;SDS011;33291;46.222;26.460;2023-07-02T07:36:02;4.30;;;3.00;;
47555;SDS011;33291;46.222;26.460;2023-07-02T07:38:28;5.10;;;3.38;;
47555;SDS011;33291;46.222;26.460;2023-07-02T07:40:53;6.40;;;2.90;;
47555;SDS011;33291;46.222;26.460;2023-07-02T07:43:19;4.78;;;2.80;;
47555;SDS011;33291;46.222;26.460;2023-07-02T07:45:44;6.10;;;3.05;;
47555;SDS011;33291;46.222;26.460;2023-07-02T07:48:10;6.50;;;3.00;;
47555;SDS011;33291;46.222;26.460;2023-07-02T07:50:35;4.45;;;3.13;;
47555;SDS011;33291;46.222;26.460;2023-07-02T07:53:01;3.70;;;3.00;;
47555;SDS011;33291;46.222;26.460;2023-07-02T07:55:26;2.72;;;2.17;;
47555;SDS011;33291;46.222;26.460;2023-07-02T07:57:52;3.85;;;2.60;;
47555;SDS011;33291;46.222;26.460;2023-07-02T08:00:17;3.08;;;2.50;;
47555;SDS011;33291;46.222;26.460;2023-07-02T08:02:44;7.18;;;2.63;;
47555;SDS011;33291;46.222;26.460;2023-07-02T08:05:10;3.35;;;2.53;;
47555;SDS011;33291;46.222;26.460;2023-07-02T08:07:36;5.53;;;2.50;;
47555;SDS011;33291;46.222;26.460;2023-07-02T08:10:01;4.47;;;2.40;;
47555;SDS011;33291;46.222;26.460;2023-07-02T08:12:30;4.28;;;2.65;;
47555;SDS011;33291;46.222;26.460;2023-07-02T08:14:55;3.85;;;2.75;;
47555;SDS011;33291;46.222;26.460;2023-07-02T08:17:22;3.58;;;2.60;;
47555;SDS011;33291;46.222;26.460;2023-07-02T08:19:47;6.93;;;3.20;;
47555;SDS011;33291;46.222;26.460;2023-07-02T08:22:13;2.95;;;2.70;;
47555;SDS011;33291;46.222;26.460;2023-07-02T08:24:38;7.30;;;2.67;;
47555;SDS011;33291;46.222;26.460;2023-07-02T08:27:04;3.88;;;2.40;;
47555;SDS011;33291;46.222;26.460;2023-07-02T08:29:30;6.22;;;2.92;;
47555;SDS011;33291;46.222;26.460;2023-07-02T08:31:56;4.75;;;2.47;;
47555;SDS011;33291;46.222;26.460;2023-07-02T08:34:22;4.18;;;2.95;;
47555;SDS011;33291;46.222;26.460;2023-07-02T08:36:47;3.85;;;3.15;;
47555;SDS011;33291;46.222;26.460;2023-07-02T08:39:13;3.10;;;2.40;;
47555;SDS011;33291;46.222;26.460;2023-07-02T08:41:42;4.63;;;3.22;;
47555;SDS011;33291;46.222;26.460;2023-07-02T08:44:11;7.30;;;2.75;;
47555;SDS011;33291;46.222;26.460;2023-07-02T08:46:40;4.53;;;2.40;;
47555;SDS011;33291;46.222;26.460;2023-07-02T08:49:07;3.38;;;2.53;;
47555;SDS011;33291;46.222;26.460;2023-07-02T08:51:33;2.72;;;2.53;;
47555;SDS011;33291;46.222;26.460;2023-07-02T08:53:59;3.25;;;2.53;;
47555;SDS011;33291;46.222;26.460;2023-07-02T08:56:25;3.58;;;2.53;;
47555;SDS011;33291;46.222;26.460;2023-07-02T08:58:52;4.05;;;2.28;;
47555;SDS011;33291;46.222;26.460;2023-07-02T09:01:17;4.90;;;2.78;;
47555;SDS011;33291;46.222;26.460;2023-07-02T09:03:43;4.43;;;2.83;;
47555;SDS011;33291;46.222;26.460;2023-07-02T09:06:09;3.90;;;2.42;;
47555;SDS011;33291;46.222;26.460;2023-07-02T09:08:36;2.85;;;2.45;;
47555;SDS011;33291;46.222;26.460;2023-07-02T09:11:05;3.03;;;2.35;;
47555;SDS011;33291;46.222;26.460;2023-07-02T09:13:58;3.35;;;2.40;;
47555;SDS011;33291;46.222;26.460;2023-07-02T09:16:31;6.47;;;2.53;;
47555;SDS011;33291;46.222;26.460;2023-07-02T09:19:06;4.30;;;2.70;;
47555;SDS011;33291;46.222;26.460;2023-07-02T09:21:38;7.93;;;3.22;;
47555;SDS011;33291;46.222;26.460;2023-07-02T09:24:13;3.00;;;2.47;;
47555;SDS011;33291;46.222;26.460;2023-07-02T09:26:45;3.15;;;2.70;;
47555;SDS011;33291;46.222;26.460;2023-07-02T09:29:22;8.20;;;2.47;;
47555;SDS011;33291;46.222;26.460;2023-07-02T09:31:53;4.18;;;2.20;;
47555;SDS011;33291;46.222;26.460;2023-07-02T09:34:25;3.88;;;2.30;;
47555;SDS011;33291;46.222;26.460;2023-07-02T09:36:55;2.47;;;1.88;;
47555;SDS011;33291;46.222;26.460;2023-07-02T09:39:25;2.78;;;2.45;;
47555;SDS011;33291;46.222;26.460;2023-07-02T09:41:56;3.05;;;2.03;;
47555;SDS011;33291;46.222;26.460;2023-07-02T09:44:26;2.75;;;1.92;;
47555;SDS011;33291;46.222;26.460;2023-07-02T09:49:22;2.53;;;2.00;;
47555;SDS011;33291;46.222;26.460;2023-07-02T09:51:49;4.47;;;2.50;;
47555;SDS011;33291;46.222;26.460;2023-07-02T09:54:16;5.72;;;2.60;;
47555;SDS011;33291;46.222;26.460;2023-07-02T09:56:41;3.17;;;2.45;;
47555;SDS011;33291;46.222;26.460;2023-07-02T09:59:08;4.68;;;3.03;;
47555;SDS011;33291;46.222;26.460;2023-07-02T10:01:34;5.18;;;2.72;;
47555;SDS011;33291;46.222;26.460;2023-07-02T10:04:09;4.03;;;2.85;;
47555;SDS011;33291;46.222;26.460;2023-07-02T10:06:50;3.17;;;2.65;;
47555;SDS011;33291;46.222;26.460;2023-07-02T10:09:20;3.90;;;2.33;;
47555;SDS011;33291;46.222;26.460;2023-07-02T10:11:47;2.95;;;2.67;;
47555;SDS011;33291;46.222;26.460;2023-07-02T10:14:12;2.83;;;2.35;;
47555;SDS011;33291;46.222;26.460;2023-07-02T10:16:52;3.22;;;2.75;;
47555;SDS011;33291;46.222;26.460;2023-07-02T10:19:19;4.05;;;2.70;;
47555;SDS011;33291;46.222;26.460;2023-07-02T10:21:45;3.85;;;2.83;;
47555;SDS011;33291;46.222;26.460;2023-07-02T10:24:14;4.03;;;2.88;;
47555;SDS011;33291;46.222;26.460;2023-07-02T10:26:57;4.05;;;2.85;;
47555;SDS011;33291;46.222;26.460;2023-07-02T10:29:24;3.58;;;2.95;;
47555;SDS011;33291;46.222;26.460;2023-07-02T10:31:51;3.28;;;2.80;;
47555;SDS011;33291;46.222;26.460;2023-07-02T10:34:31;3.28;;;2.75;;
47555;SDS011;33291;46.222;26.460;2023-07-02T10:36:57;4.60;;;2.80;;
47555;SDS011;33291;46.222;26.460;2023-07-02T10:39:23;6.22;;;2.63;;
47555;SDS011;33291;46.222;26.460;2023-07-02T10:41:49;3.30;;;2.83;;
47555;SDS011;33291;46.222;26.460;2023-07-02T10:44:14;3.35;;;2.38;;
47555;SDS011;33291;46.222;26.460;2023-07-02T10:46:44;3.33;;;2.30;;
47555;SDS011;33291;46.222;26.460;2023-07-02T10:49:09;3.63;;;2.60;;
47555;SDS011;33291;46.222;26.460;2023-07-02T10:51:36;4.78;;;2.78;;
47555;SDS011;33291;46.222;26.460;2023-07-02T10:54:03;3.35;;;2.88;;
47555;SDS011;33291;46.222;26.460;2023-07-02T10:56:30;5.57;;;2.83;;
47555;SDS011;33291;46.222;26.460;2023-07-02T10:58:56;2.90;;;2.60;;
47555;SDS011;33291;46.222;26.460;2023-07-02T11:01:26;8.68;;;3.20;;
47555;SDS011;33291;46.222;26.460;2023-07-02T11:03:58;4.72;;;2.70;;
47555;SDS011;33291;46.222;26.460;2023-07-02T11:06:25;4.05;;;3.05;;
47555;SDS011;33291;46.222;26.460;2023-07-02T11:08:52;4.57;;;3.60;;
47555;SDS011;33291;46.222;26.460;2023-07-02T11:11:20;10.05;;;7.43;;
47555;SDS011;33291;46.222;26.460;2023-07-02T11:13:46;3.75;;;3.20;;
47555;SDS011;33291;46.222;26.460;2023-07-02T11:16:19;4.82;;;3.65;;
47555;SDS011;33291;46.222;26.460;2023-07-02T11:18:54;8.05;;;3.28;;
47555;SDS011;33291;46.222;26.460;2023-07-02T11:21:49;4.30;;;3.45;;
47555;SDS011;33291;46.222;26.460;2023-07-02T11:24:25;5.38;;;3.60;;
47555;SDS011;33291;46.222;26.460;2023-07-02T11:26:55;7.32;;;4.03;;
47555;SDS011;33291;46.222;26.460;2023-07-02T11:29:22;4.45;;;3.65;;
47555;SDS011;33291;46.222;26.460;2023-07-02T11:31:47;4.28;;;3.83;;
47555;SDS011;33291;46.222;26.460;2023-07-02T11:34:13;6.93;;;4.03;;
47555;SDS011;33291;46.222;26.460;2023-07-02T11:36:39;6.60;;;4.13;;
47555;SDS011;33291;46.222;26.460;2023-07-02T11:39:05;4.53;;;3.83;;
47555;SDS011;33291;46.222;26.460;2023-07-02T11:41:39;5.65;;;4.25;;
47555;SDS011;33291;46.222;26.460;2023-07-02T11:44:06;5.82;;;4.47;;
47555;SDS011;33291;46.222;26.460;2023-07-02T11:46:32;5.20;;;4.13;;
47555;SDS011;33291;46.222;26.460;2023-07-02T11:48:59;5.85;;;3.75;;
47555;SDS011;33291;46.222;26.460;2023-07-02T11:51:25;4.07;;;3.60;;
47555;SDS011;33291;46.222;26.460;2023-07-02T11:53:50;8.75;;;4.05;;
47555;SDS011;33291;46.222;26.460;2023-07-02T11:56:16;5.93;;;3.78;;
47555;SDS011;33291;46.222;26.460;2023-07-02T11:58:41;4.95;;;4.18;;
47555;SDS011;33291;46.222;26.460;2023-07-02T12:01:08;5.70;;;4.10;;
47555;SDS011;33291;46.222;26.460;2023-07-02T12:03:33;4.40;;;3.97;;
47555;SDS011;33291;46.222;26.460;2023-07-02T12:05:59;4.35;;;3.55;;
47555;SDS011;33291;46.222;26.460;2023-07-02T12:08:24;5.22;;;4.07;;
47555;SDS011;33291;46.222;26.460;2023-07-02T12:10:50;3.53;;;3.20;;
47555;SDS011;33291;46.222;26.460;2023-07-02T12:13:15;3.95;;;3.25;;
47555;SDS011;33291;46.222;26.460;2023-07-02T12:15:41;3.53;;;3.10;;
47555;SDS011;33291;46.222;26.460;2023-07-02T12:18:07;3.30;;;3.00;;
47555;SDS011;33291;46.222;26.460;2023-07-02T12:20:33;5.85;;;3.45;;
47555;SDS011;33291;46.222;26.460;2023-07-02T12:22:59;4.50;;;3.22;;
47555;SDS011;33291;46.222;26.460;2023-07-02T12:25:25;3.67;;;2.60;;
47555;SDS011;33291;46.222;26.460;2023-07-02T12:27:50;4.88;;;3.05;;
47555;SDS011;33291;46.222;26.460;2023-07-02T12:30:16;5.47;;;2.80;;
47555;SDS011;33291;46.222;26.460;2023-07-02T12:32:42;4.60;;;2.78;;
47555;SDS011;33291;46.222;26.460;2023-07-02T12:35:09;3.80;;;2.38;;
47555;SDS011;33291;46.222;26.460;2023-07-02T12:37:35;2.45;;;2.17;;
47555;SDS011;33291;46.222;26.460;2023-07-02T12:40:00;5.13;;;2.42;;
47555;SDS011;33291;46.222;26.460;2023-07-02T12:42:26;3.03;;;2.42;;
47555;SDS011;33291;46.222;26.460;2023-07-02T12:44:52;12.30;;;2.40;;
47555;SDS011;33291;46.222;26.460;2023-07-02T12:47:17;4.57;;;1.98;;
47555;SDS011;33291;46.222;26.460;2023-07-02T12:49:43;3.28;;;2.80;;
47555;SDS011;33291;46.222;26.460;2023-07-02T12:52:08;2.45;;;2.10;;
47555;SDS011;33291;46.222;26.460;2023-07-02T12:54:34;2.92;;;2.50;;
47555;SDS011;33291;46.222;26.460;2023-07-02T12:56:59;2.80;;;2.38;;
47555;SDS011;33291;46.222;26.460;2023-07-02T12:59:25;3.08;;;2.08;;
47555;SDS011;33291;46.222;26.460;2023-07-02T13:01:50;4.50;;;1.58;;
47555;SDS011;33291;46.222;26.460;2023-07-02T13:04:15;3.90;;;2.03;;
47555;SDS011;33291;46.222;26.460;2023-07-02T13:06:41;4.18;;;1.95;;
47555;SDS011;33291;46.222;26.460;2023-07-02T13:09:07;2.65;;;2.28;;
47555;SDS011;33291;46.222;26.460;2023-07-02T13:11:33;2.35;;;1.85;;
47555;SDS011;33291;46.222;26.460;2023-07-02T13:13:58;4.60;;;1.98;;
47555;SDS011;33291;46.222;26.460;2023-07-02T13:16:24;3.22;;;2.30;;
47555;SDS011;33291;46.222;26.460;2023-07-02T13:18:49;2.13;;;1.92;;
47555;SDS011;33291;46.222;26.460;2023-07-02T13:21:15;2.70;;;2.33;;
47555;SDS011;33291;46.222;26.460;2023-07-02T13:23:41;3.28;;;2.17;;
47555;SDS011;33291;46.222;26.460;2023-07-02T13:26:06;3.33;;;2.75;;
47555;SDS011;33291;46.222;26.460;2023-07-02T13:28:31;2.30;;;2.10;;
47555;SDS011;33291;46.222;26.460;2023-07-02T13:30:57;3.33;;;2.25;;
47555;SDS011;33291;46.222;26.460;2023-07-02T13:33:22;2.30;;;2.08;;
47555;SDS011;33291;46.222;26.460;2023-07-02T13:35:48;3.55;;;2.53;;
47555;SDS011;33291;46.222;26.460;2023-07-02T13:38:14;3.20;;;2.58;;
47555;SDS011;33291;46.222;26.460;2023-07-02T13:40:39;3.00;;;2.17;;
47555;SDS011;33291;46.222;26.460;2023-07-02T13:43:05;7.18;;;2.40;;
47555;SDS011;33291;46.222;26.460;2023-07-02T13:45:30;3.25;;;2.42;;
47555;SDS011;33291;46.222;26.460;2023-07-02T13:47:56;3.55;;;2.58;;
47555;SDS011;33291;46.222;26.460;2023-07-02T13:50:21;4.00;;;2.83;;
47555;SDS011;33291;46.222;26.460;2023-07-02T13:52:47;2.55;;;2.35;;
47555;SDS011;33291;46.222;26.460;2023-07-02T13:55:14;4.78;;;2.15;;
47555;SDS011;33291;46.222;26.460;2023-07-02T13:57:40;9.77;;;3.38;;
47555;SDS011;33291;46.222;26.460;2023-07-02T14:00:06;3.35;;;2.75;;
47555;SDS011;33291;46.222;26.460;2023-07-02T14:02:32;6.45;;;3.72;;
47555;SDS011;33291;46.222;26.460;2023-07-02T14:04:58;6.95;;;3.58;;
47555;SDS011;33291;46.222;26.460;2023-07-02T14:07:24;5.63;;;3.40;;
47555;SDS011;33291;46.222;26.460;2023-07-02T14:09:50;5.57;;;3.50;;
47555;SDS011;33291;46.222;26.460;2023-07-02T14:12:16;4.22;;;3.53;;
47555;SDS011;33291;46.222;26.460;2023-07-02T14:14:41;5.80;;;3.72;;
47555;SDS011;33291;46.222;26.460;2023-07-02T14:17:07;5.53;;;4.05;;
47555;SDS011;33291;46.222;26.460;2023-07-02T14:19:33;4.75;;;3.95;;
47555;SDS011;33291;46.222;26.460;2023-07-02T14:21:58;6.60;;;3.63;;
47555;SDS011;33291;46.222;26.460;2023-07-02T14:24:24;10.13;;;3.90;;
47555;SDS011;33291;46.222;26.460;2023-07-02T14:26:51;7.03;;;3.35;;
47555;SDS011;33291;46.222;26.460;2023-07-02T14:29:16;5.60;;;2.85;;
47555;SDS011;33291;46.222;26.460;2023-07-02T14:31:42;5.78;;;3.55;;
47555;SDS011;33291;46.222;26.460;2023-07-02T14:34:07;11.60;;;3.35;;
47555;SDS011;33291;46.222;26.460;2023-07-02T14:36:33;5.10;;;3.28;;